Latest Weather Observations for Mount Ginini

IDN60801

Issued at 3:05 pm EST Friday 18 April 2014 (issued every 30 minutes, with the page automatically refreshed every 10 minutes)

About weather observations | Map of weather stations | Latest weather observations for NSW | Other Formats
Station Details ID: 070349 Name: MOUNT GININI AWS Lat: -35.53 Lon: 148.77 Height: 1760.0 m
Data from the previous 72 hours. | See also: Recent months at Mount Ginini
Date/Time
EST
Temp
°C
App
Temp
°C
Dew
Point
Rel
Hum
%
Delta-T
°C
Wind Press
QNH
hPa
Press
MSL
hPa
Rain
since 9 am
mm
Dir
 
Spd
km/h
Gust
km/h
Spd
kts
Gust
kts
18/03:00pm 6.9 2.4 6.0 94 0.5 W 19 37 10 20 - - 0.0
18/02:30pm 8.1 3.8 7.2 94 0.5 W 19 35 10 19 - - 0.0
18/02:00pm 8.1 3.6 6.1 87 1.0 W 19 39 10 21 - - 0.0
18/01:30pm 8.5 4.6 5.4 81 1.6 W 15 35 8 19 - - 0.0
18/01:00pm 7.3 2.5 4.9 85 1.2 WSW 19 39 10 21 - - 0.0
18/12:30pm 8.4 2.6 4.4 76 2.0 WSW 24 44 13 24 - - 0.0
18/12:00pm 8.2 3.6 6.7 90 0.8 WSW 20 39 11 21 - - 0.0
18/11:30am 7.6 1.0 4.4 80 1.6 WSW 28 50 15 27 - - 0.0
18/11:00am 8.5 1.5 6.0 84 1.3 WSW 32 57 17 31 - - 0.0
18/10:30am 8.0 1.6 7.1 94 0.5 WSW 30 50 16 27 - - 0.0
18/10:00am 7.5 1.4 6.8 95 0.4 WSW 28 50 15 27 - - 0.0
18/09:30am 6.9 1.2 6.5 97 0.2 WSW 26 41 14 22 - - 0.0
18/09:00am 5.8 0.2 5.5 98 0.1 WSW 24 44 13 24 - - 0.0
18/08:30am 5.2 -0.1 5.1 99 0.0 SW 22 37 12 20 - - 0.0
18/08:00am 4.4 -1.8 4.1 98 0.1 SW 26 41 14 22 - - 0.0
18/07:30am 4.2 -2.1 3.8 97 0.2 SW 26 37 14 20 - - 0.0
18/07:00am 4.0 -2.3 3.6 97 0.2 SW 26 41 14 22 - - 0.0
18/06:30am 3.9 -2.1 3.3 96 0.3 SW 24 37 13 20 - - 0.0
18/06:00am 3.8 -1.2 3.4 97 0.2 SW 19 30 10 16 - - 0.0
18/05:30am 3.7 -1.3 3.4 98 0.1 SW 19 30 10 16 - - 0.0
18/05:00am 3.8 -1.8 3.7 99 0.0 SW 22 33 12 18 - - 0.0
18/04:30am 3.6 -1.5 3.3 98 0.1 SW 19 28 10 15 - - 0.0
18/04:00am 3.7 -1.0 3.4 98 0.1 SW 17 26 9 14 - - 0.0
18/03:30am 3.7 0.2 3.3 97 0.2 SW 11 24 6 13 - - 0.0
18/03:00am 3.9 -0.4 3.3 96 0.3 WSW 15 24 8 13 - - 0.0
18/02:30am 4.0 -0.2 3.7 98 0.1 WSW 15 22 8 12 - - 0.0
18/02:00am 4.1 -0.1 3.8 98 0.1 WSW 15 22 8 12 - - 0.0
18/01:30am 4.0 0.5 3.7 98 0.1 WSW 11 20 6 11 - - 0.0
18/01:00am 4.0 0.6 3.9 99 0.0 SW 11 19 6 10 - - 0.0
18/12:30am 4.0 -1.0 3.7 98 0.1 SW 19 24 10 13 - - 0.0
18/12:00am 3.9 -0.3 3.6 98 0.1 SW 15 22 8 12 - - 0.0
 
Date/Time
EST
Temp
°C
App
Temp
°C
Dew
Point
Rel
Hum
%
Delta-T
°C
Wind Press
QNH
hPa
Press
MSL
hPa
Rain
since 9 am
mm
Dir
 
Spd
km/h
Gust
km/h
Spd
kts
Gust
kts
17/11:30pm 3.9 0.0 3.6 98 0.1 SW 13 19 7 10 - - 0.0
17/11:00pm 4.0 0.9 3.7 98 0.1 WSW 9 13 5 7 - - 0.0
17/10:30pm 4.5 2.5 4.2 98 0.1 W 4 6 2 3 - - 0.0
17/10:00pm 5.0 3.1 4.7 98 0.1 N 4 6 2 3 - - 0.0
17/09:30pm 4.9 3.3 4.5 97 0.2 N 2 4 1 2 - - 0.0
17/09:00pm 4.9 2.5 4.5 97 0.2 SSW 6 7 3 4 - - 0.0
17/08:30pm 5.2 2.7 4.8 97 0.2 SSW 7 9 4 5 - - 0.0
17/08:00pm 5.4 3.0 5.1 98 0.1 SSW 7 9 4 5 - - 0.0
17/07:30pm 5.3 3.0 5.0 98 0.1 SSW 6 7 3 4 - - 0.0
17/07:00pm 5.9 4.1 5.6 98 0.1 WSW 4 6 2 3 - - 0.0
17/06:30pm 6.3 4.2 5.9 97 0.2 W 6 9 3 5 - - 0.0
17/06:00pm 7.0 5.5 6.6 97 0.2 NW 4 7 2 4 - - 0.0
17/05:30pm 7.6 6.1 7.0 96 0.3 NNW 4 6 2 3 - - 0.0
17/05:00pm 8.3 6.9 7.4 94 0.5 WNW 4 9 2 5 - - 0.0
17/04:30pm 9.1 7.1 6.2 82 1.5 WNW 6 13 3 7 - - 0.0
17/04:00pm 11.3 9.8 6.6 73 2.5 WSW 4 9 2 5 - - 0.0
17/03:30pm 11.6 8.9 5.7 67 3.0 WNW 9 17 5 9 - - 0.0
17/03:00pm 12.2 9.5 3.7 56 4.2 W 7 15 4 8 - - 0.0
17/02:30pm 11.9 9.2 2.9 54 4.4 WNW 6 15 3 8 - - 0.0
17/02:00pm 11.5 9.1 4.5 62 3.5 W 6 15 3 8 - - 0.0
17/01:30pm 11.7 8.1 -1.8 39 5.9 SSW 7 13 4 7 - - 0.0
17/01:00pm 11.1 8.4 2.7 56 4.0 SW 6 15 3 8 - - 0.0
17/12:30pm 9.3 7.2 3.9 69 2.6 S 4 13 2 7 - - 0.0
17/12:00pm 8.0 5.6 2.0 66 2.8 W 4 11 2 6 - - 0.0
17/11:30am 9.2 6.9 2.8 64 3.0 WSW 4 11 2 6 - - 0.0
17/11:00am 8.9 5.9 1.8 61 3.3 WSW 7 13 4 7 - - 0.0
17/10:30am 8.3 5.5 3.2 70 2.4 SW 7 15 4 8 - - 0.0
17/10:00am 7.8 5.1 3.7 75 2.0 SW 7 13 4 7 - - 0.0
17/09:30am 7.3 4.6 2.8 73 2.1 SW 6 11 3 6 - - 0.0
17/09:00am 6.1 4.0 4.1 87 1.0 SW 4 6 2 3 - - 0.0
17/08:30am 6.4 4.5 4.9 90 0.7 SW 4 6 2 3 - - 0.0
17/08:00am 5.3 3.3 4.6 95 0.3 S 4 7 2 4 - - 0.0
17/07:30am 4.5 2.4 3.9 96 0.3 SSE 4 6 2 3 - - 0.0
17/07:00am 3.9 1.7 3.6 98 0.1 SE 4 7 2 4 - - 0.0
17/06:30am 3.5 0.9 3.2 98 0.1 SSE 6 9 3 5 - - 0.0
17/06:00am 3.5 1.7 3.2 98 0.1 ESE 2 7 1 4 - - 0.0
17/05:30am 3.6 1.4 3.2 97 0.2 SSE 4 4 2 2 - - 0.0
17/05:00am 3.9 2.1 3.5 97 0.2 SSE 2 4 1 2 - - 0.0
17/04:30am 3.4 0.8 3.0 97 0.2 S 6 7 3 4 - - 0.0
17/04:00am 3.4 0.8 3.0 97 0.2 S 6 6 3 3 - - 0.0
17/03:30am 3.7 1.9 3.4 98 0.1 SSE 2 4 1 2 - - 0.0
17/03:00am 4.0 1.9 3.7 98 0.1 SSE 4 6 2 3 - - 0.0
17/02:30am 3.8 1.3 3.5 98 0.1 SSW 6 7 3 4 - - 0.0
17/02:00am 3.9 1.7 3.6 98 0.1 SW 4 6 2 3 - - 0.0
17/01:30am 3.6 2.2 3.3 98 0.1 CALM 0 4 0 2 - - 0.0
17/01:00am 3.8 2.0 3.5 98 0.1 ESE 2 4 1 2 - - 0.0
17/12:30am 3.8 1.6 3.5 98 0.1 SSW 4 6 2 3 - - 0.0
17/12:00am 3.9 1.7 3.6 98 0.1 W 4 6 2 3 - - 0.0
 
Date/Time
EST
Temp
°C
App
Temp
°C
Dew
Point
Rel
Hum
%
Delta-T
°C
Wind Press
QNH
hPa
Press
MSL
hPa
Rain
since 9 am
mm
Dir
 
Spd
km/h
Gust
km/h
Spd
kts
Gust
kts
16/11:30pm 3.8 2.4 3.4 97 0.2 CALM 0 0 0 0 - - 0.0
16/11:00pm 4.3 2.2 3.9 97 0.2 ENE 4 6 2 3 - - 0.0
16/10:30pm 4.8 2.4 4.4 97 0.2 E 6 7 3 4 - - 0.0
16/10:00pm 4.9 2.5 4.3 96 0.3 E 6 7 3 4 - - 0.0
16/09:30pm 5.1 2.6 4.5 96 0.3 E 7 9 4 5 - - 0.0
16/09:00pm 5.0 2.9 4.1 94 0.4 E 4 7 2 4 - - 0.0
16/08:30pm 4.8 1.0 3.9 94 0.4 S 13 17 7 9 - - 0.0
16/08:00pm 4.9 0.4 -0.5 68 2.3 S 13 19 7 10 - - 0.0
16/07:30pm 5.0 1.1 1.1 76 1.7 S 11 17 6 9 - - 0.0
16/07:00pm 5.2 1.5 4.3 94 0.4 S 13 19 7 10 - - 0.0
16/06:30pm 5.4 2.1 4.5 94 0.4 S 11 17 6 9 - - 0.0
16/06:00pm 6.0 2.9 3.8 86 1.0 SSW 9 17 5 9 - - 0.0
16/05:30pm 8.2 6.3 4.8 79 1.7 WSW 4 9 2 5 - - 0.0
16/05:00pm 8.7 6.7 6.3 85 1.2 NW 6 13 3 7 - - 0.0
16/04:30pm 10.0 7.3 3.7 65 3.1 WNW 7 13 4 7 - - 0.0
16/04:00pm 10.2 7.3 2.8 60 3.5 W 7 15 4 8 - - 0.0
16/03:30pm 10.2 7.5 3.5 63 3.3 W 7 15 4 8 - - 0.0
16/03:00pm 11.2 8.3 4.4 63 3.4 WSW 9 17 5 9 - - 0.0
16/02:30pm 9.9 6.6 2.7 61 3.4 WSW 9 19 5 10 - - 0.0
16/02:00pm 10.8 8.4 5.1 68 2.9 W 7 19 4 10 - - 0.0
16/01:30pm 10.4 7.6 5.0 69 2.7 W 9 19 5 10 - - 0.0
16/01:00pm 10.9 8.5 5.4 69 2.8 W 7 15 4 8 - - 0.0
16/12:30pm 11.0 8.2 3.3 59 3.7 W 7 17 4 9 - - 0.0
16/12:00pm 10.7 7.2 1.3 52 4.4 SW 9 17 5 9 - - 0.0
16/11:30am 8.3 5.5 1.9 64 3.0 WSW 6 13 3 7 - - 0.0
16/11:00am 9.2 6.5 5.6 78 1.8 SW 9 17 5 9 - - 0.0
16/10:30am 8.3 5.0 6.6 89 0.9 SSW 13 22 7 12 - - 0.0
16/10:00am 7.9 4.7 7.0 94 0.5 S 13 20 7 11 - - 0.0
16/09:30am 6.9 2.8 6.2 95 0.4 SSW 17 26 9 14 - - 0.0
16/09:00am 6.4 1.8 5.5 94 0.4 SSW 19 28 10 15 - - 0.0
16/08:30am 5.7 1.3 4.8 94 0.4 S 17 26 9 14 - - 0.0
16/08:00am 4.8 -0.1 4.1 95 0.3 S 19 28 10 15 - - 0.0
16/07:30am 4.2 -0.8 3.6 96 0.3 S 19 26 10 14 - - 0.0
16/07:00am 3.7 -1.0 3.3 97 0.2 S 17 24 9 13 - - 0.0
16/06:30am 3.4 -1.3 3.0 97 0.2 S 17 26 9 14 - - 0.0
16/06:00am 3.3 -1.4 2.9 97 0.2 S 17 24 9 13 - - 0.0
16/05:30am 3.1 -1.7 2.8 98 0.1 S 17 20 9 11 - - 0.0
16/05:00am 2.9 -1.9 2.8 99 0.0 S 17 22 9 12 - - 0.0
16/04:30am 2.6 -1.5 2.3 98 0.1 SSE 13 19 7 10 - - 0.0
16/04:00am 1.8 -2.4 1.5 98 0.1 SSE 13 19 7 10 - - 0.0
16/03:30am 1.8 -1.3 1.5 98 0.1 SE 7 13 4 7 - - 0.0
16/03:00am 1.9 -1.5 1.6 98 0.1 SSE 9 13 5 7 - - 0.0
16/02:30am 2.2 -0.8 1.9 98 0.1 SE 7 15 4 8 - - 0.0
16/02:00am 2.6 -0.4 2.3 98 0.1 SE 7 15 4 8 - - 0.0
16/01:30am 2.7 0.0 2.6 99 0.0 ESE 6 15 3 8 - - 0.0
16/01:00am 2.8 -0.1 2.7 99 0.0 SE 7 15 4 8 - - 0.0
16/12:30am 2.8 -0.1 2.7 99 0.0 ESE 7 17 4 9 - - 0.0
16/12:00am 2.9 0.0 2.8 99 0.0 ESE 7 19 4 10 - - 0.0
 
Date/Time
EST
Temp
°C
App
Temp
°C
Dew
Point
Rel
Hum
%
Delta-T
°C
Wind Press
QNH
hPa
Press
MSL
hPa
Rain
since 9 am
mm
Dir
 
Spd
km/h
Gust
km/h
Spd
kts
Gust
kts
15/11:30pm 3.3 0.1 3.2 99 0.0 SE 9 19 5 10 - - 0.0
15/11:00pm 3.4 0.2 3.3 99 0.0 SE 9 20 5 11 - - 0.0
15/10:30pm 3.9 0.8 3.8 99 0.0 SE 9 20 5 11 - - 0.0
15/10:00pm 4.3 1.9 4.2 99 0.0 ESE 6 19 3 10 - - 0.0
15/09:30pm 4.4 1.8 4.3 99 0.0 ESE 7 17 4 9 - - 0.0
15/09:00pm 4.5 2.1 4.4 99 0.0 SE 6 15 3 8 - - 0.0
15/08:30pm 4.5 2.1 4.4 99 0.0 ESE 6 17 3 9 - - 0.0
15/08:00pm 4.7 2.3 4.4 98 0.1 ESE 6 17 3 9 - - 0.0
15/07:30pm 4.8 2.4 4.4 97 0.2 ESE 6 15 3 8 - - 0.0
15/07:00pm 5.1 2.7 4.5 96 0.3 ESE 6 17 3 9 - - 0.0
15/06:30pm 5.5 3.5 4.6 94 0.4 E 4 11 2 6 - - 0.0
15/06:00pm 5.9 4.0 5.0 94 0.4 ESE 4 11 2 6 - - 0.0
15/05:30pm 6.3 4.1 5.4 94 0.4 ESE 6 15 3 8 - - 0.0
15/05:00pm 7.0 5.1 5.0 87 1.0 ESE 4 15 2 8 - - 0.0
15/04:30pm 7.2 4.9 4.7 84 1.2 E 6 19 3 10 - - 0.0
15/04:00pm 7.9 5.5 5.4 84 1.2 ESE 7 20 4 11 - - 0.0
15/03:30pm 8.6 6.4 6.1 84 1.3 E 7 20 4 11 - - 0.0

Other Formats:

Comma delimited format used in spreadsheet applications
http://www.bom.gov.au/fwo/IDN60801/IDN60801.95925.axf

JavaScript Object Notation format (JSON) in row-major order
http://www.bom.gov.au/fwo/IDN60801/IDN60801.95925.json